LDDU

Dubrovnik Airport

Dubrovnik, Croatia
TAF LDDU 182325Z 1900/2000 02020KT CAVOK TX10/1913Z TN03/1902Z PROB40 TEMPO 1900/1906 02020G30KT BECMG 1908/1910 06010KT
Issued Valid From Valid To
Dec-18 @ 23:25 UTC
(15 minutes ago)
Dec-19 @ 00:00 UTC
(in 20 minutes)
Dec-20 @ 00:00 UTC
(in 24 hours)
Dec-19 @ 00:00 to Dec-19 @ 08:00
TAF LDDU 182325Z 1900/2000 02020KT CAVOK TX10/1913Z TN03/1902Z
Wind Visibility Clouds
20° at 20 knots 10,000+ meters
  • No significant clouds
Temporary  (Probability 40%) Dec-19 @ 00:00 to Dec-19 @ 06:00
PROB40 TEMPO 1900/1906 02020G30KT
Wind
20° at 20 knots
 Gusting to 30 knots
Becoming Dec-19 @ 08:00 to Dec-20 @ 00:00
BECMG 1908/1910 06010KT
Wind Visibility Clouds
60° at 10 knots 10,000+ meters
  • No significant clouds
TAF LDDU 182325Z 1900/2000 02020KT CAVOK TX10/1913Z TN03/1902Z PROB40 TEMPO 1900/1906 02020G30KT BECMG 1908/1910 06010KT
Issued Dec-18 @ 23:25 UTC
(15 minutes ago)
Valid From Dec-19 @ 00:00 UTC
(in 20 minutes)
Valid To Dec-20 @ 00:00 UTC
(in 24 hours)
Dec-19 @ 00:00 - Dec-19 @ 08:00
Wind Visibility
20° at 20 knots 10,000+ meters
Clouds
  • No significant clouds
Probability 40% Temporary Dec-19 @ 00:00 - Dec-19 @ 06:00
Wind
20° at 20 knots
 Gusting to 30 knots
Becoming Dec-19 @ 08:00 - Dec-20 @ 00:00
Wind Visibility
60° at 10 knots 10,000+ meters
Clouds
  • No significant clouds